sensor_id;sensor_type;location;lat;lon;timestamp;pressure;altitude;pressure_sealevel;temperature;humidity
48810;BME280;40070;47.322;18.784;2023-09-19T00:00:07;997.41;;;24.52;53.23
48810;BME280;40070;47.322;18.784;2023-09-19T00:02:10;997.41;;;24.76;52.72
48810;BME280;40070;47.322;18.784;2023-09-19T00:04:12;997.40;;;24.47;53.35
48810;BME280;40070;47.322;18.784;2023-09-19T00:06:15;997.43;;;24.50;53.44
48810;BME280;40070;47.322;18.784;2023-09-19T00:08:17;997.49;;;24.56;53.41
48810;BME280;40070;47.322;18.784;2023-09-19T00:10:20;997.48;;;24.65;53.06
48810;BME280;40070;47.322;18.784;2023-09-19T00:12:23;997.50;;;24.69;53.15
48810;BME280;40070;47.322;18.784;2023-09-19T00:14:25;997.50;;;24.61;53.38
48810;BME280;40070;47.322;18.784;2023-09-19T00:16:28;997.45;;;24.69;53.26
48810;BME280;40070;47.322;18.784;2023-09-19T00:18:30;997.48;;;24.72;53.21
48810;BME280;40070;47.322;18.784;2023-09-19T00:20:35;997.51;;;24.65;53.51
48810;BME280;40070;47.322;18.784;2023-09-19T00:22:41;997.53;;;24.64;53.59
48810;BME280;40070;47.322;18.784;2023-09-19T00:24:44;997.50;;;24.48;54.17
48810;BME280;40070;47.322;18.784;2023-09-19T00:26:46;997.49;;;24.53;54.09
48810;BME280;40070;47.322;18.784;2023-09-19T00:28:51;997.45;;;24.43;54.41
48810;BME280;40070;47.322;18.784;2023-09-19T00:30:54;997.48;;;24.51;54.32
48810;BME280;40070;47.322;18.784;2023-09-19T00:32:56;997.49;;;24.47;54.45
48810;BME280;40070;47.322;18.784;2023-09-19T00:34:59;997.47;;;24.37;54.78
48810;BME280;40070;47.322;18.784;2023-09-19T00:37:01;997.46;;;24.50;54.48
48810;BME280;40070;47.322;18.784;2023-09-19T00:39:04;997.50;;;24.50;54.59
48810;BME280;40070;47.322;18.784;2023-09-19T00:41:07;997.45;;;24.65;54.22
48810;BME280;40070;47.322;18.784;2023-09-19T00:43:09;997.42;;;24.52;54.52
48810;BME280;40070;47.322;18.784;2023-09-19T00:45:12;997.40;;;24.54;54.66
48810;BME280;40070;47.322;18.784;2023-09-19T00:47:15;997.41;;;24.65;54.34
48810;BME280;40070;47.322;18.784;2023-09-19T00:49:17;997.41;;;24.40;55.00
48810;BME280;40070;47.322;18.784;2023-09-19T00:51:20;997.46;;;24.50;54.86
48810;BME280;40070;47.322;18.784;2023-09-19T00:53:23;997.45;;;24.61;54.59
48810;BME280;40070;47.322;18.784;2023-09-19T00:55:26;997.50;;;24.35;55.29
48810;BME280;40070;47.322;18.784;2023-09-19T00:57:31;997.51;;;24.45;55.12
48810;BME280;40070;47.322;18.784;2023-09-19T00:59:34;997.50;;;24.46;55.08
48810;BME280;40070;47.322;18.784;2023-09-19T01:01:37;997.49;;;24.40;55.29
48810;BME280;40070;47.322;18.784;2023-09-19T01:03:42;997.52;;;24.20;55.87
48810;BME280;40070;47.322;18.784;2023-09-19T01:05:46;997.49;;;24.28;55.76
48810;BME280;40070;47.322;18.784;2023-09-19T01:07:49;997.47;;;24.34;55.57
48810;BME280;40070;47.322;18.784;2023-09-19T01:09:51;997.49;;;24.37;55.54
48810;BME280;40070;47.322;18.784;2023-09-19T01:11:56;997.45;;;24.48;55.23
48810;BME280;40070;47.322;18.784;2023-09-19T01:14:05;997.42;;;24.36;55.55
48810;BME280;40070;47.322;18.784;2023-09-19T01:18:40;997.32;;;24.35;55.76
48810;BME280;40070;47.322;18.784;2023-09-19T01:23:17;997.35;;;24.48;55.50
48810;BME280;40070;47.322;18.784;2023-09-19T01:27:53;997.32;;;24.36;55.80
48810;BME280;40070;47.322;18.784;2023-09-19T01:30:09;997.27;;;24.34;55.93
48810;BME280;40070;47.322;18.784;2023-09-19T01:32:18;997.28;;;24.43;55.67
48810;BME280;40070;47.322;18.784;2023-09-19T01:34:21;997.27;;;24.39;55.90
48810;BME280;40070;47.322;18.784;2023-09-19T01:36:24;997.29;;;24.25;56.30
48810;BME280;40070;47.322;18.784;2023-09-19T01:38:26;997.27;;;24.35;56.11
48810;BME280;40070;47.322;18.784;2023-09-19T01:40:29;997.32;;;24.32;56.25
48810;BME280;40070;47.322;18.784;2023-09-19T01:42:41;997.33;;;24.18;56.62
48810;BME280;40070;47.322;18.784;2023-09-19T01:45:07;997.39;;;24.28;56.38
48810;BME280;40070;47.322;18.784;2023-09-19T01:46:59;997.34;;;24.21;56.58
48810;BME280;40070;47.322;18.784;2023-09-19T01:53:56;997.36;;;24.23;56.58
48810;BME280;40070;47.322;18.784;2023-09-19T01:56:02;997.39;;;24.11;56.88
48810;BME280;40070;47.322;18.784;2023-09-19T01:58:08;997.36;;;23.95;57.50
48810;BME280;40070;47.322;18.784;2023-09-19T02:00:16;997.35;;;23.81;57.86
48810;BME280;40070;47.322;18.784;2023-09-19T02:02:21;997.29;;;23.89;57.72
48810;BME280;40070;47.322;18.784;2023-09-19T02:04:24;997.25;;;23.86;57.82
48810;BME280;40070;47.322;18.784;2023-09-19T02:06:27;997.22;;;23.92;57.62
48810;BME280;40070;47.322;18.784;2023-09-19T02:08:29;997.19;;;23.94;57.64
48810;BME280;40070;47.322;18.784;2023-09-19T02:10:33;997.15;;;23.94;57.61
48810;BME280;40070;47.322;18.784;2023-09-19T02:12:35;997.18;;;23.98;57.60
48810;BME280;40070;47.322;18.784;2023-09-19T02:14:37;997.16;;;23.92;57.83
48810;BME280;40070;47.322;18.784;2023-09-19T02:16:40;997.17;;;23.92;57.72
48810;BME280;40070;47.322;18.784;2023-09-19T02:18:42;997.18;;;24.00;57.55
48810;BME280;40070;47.322;18.784;2023-09-19T02:20:45;997.23;;;23.86;57.91
48810;BME280;40070;47.322;18.784;2023-09-19T02:22:48;997.21;;;23.83;57.96
48810;BME280;40070;47.322;18.784;2023-09-19T02:24:50;997.25;;;23.77;58.25
48810;BME280;40070;47.322;18.784;2023-09-19T02:26:53;997.29;;;23.77;58.33
48810;BME280;40070;47.322;18.784;2023-09-19T02:28:55;997.30;;;23.75;58.34
48810;BME280;40070;47.322;18.784;2023-09-19T02:30:58;997.29;;;23.82;58.07
48810;BME280;40070;47.322;18.784;2023-09-19T02:33:01;997.34;;;23.61;58.69
48810;BME280;40070;47.322;18.784;2023-09-19T02:35:04;997.36;;;23.51;59.07
48810;BME280;40070;47.322;18.784;2023-09-19T02:37:06;997.36;;;23.62;58.76
48810;BME280;40070;47.322;18.784;2023-09-19T02:39:09;997.42;;;23.49;58.93
48810;BME280;40070;47.322;18.784;2023-09-19T02:41:11;997.43;;;23.39;59.19
48810;BME280;40070;47.322;18.784;2023-09-19T02:43:14;997.32;;;23.54;58.67
48810;BME280;40070;47.322;18.784;2023-09-19T02:45:16;997.26;;;23.50;58.59
48810;BME280;40070;47.322;18.784;2023-09-19T02:47:19;997.22;;;23.34;58.96
48810;BME280;40070;47.322;18.784;2023-09-19T02:49:21;997.18;;;23.43;59.05
48810;BME280;40070;47.322;18.784;2023-09-19T02:51:24;997.18;;;23.47;58.81
48810;BME280;40070;47.322;18.784;2023-09-19T02:53:26;997.28;;;23.48;58.63
48810;BME280;40070;47.322;18.784;2023-09-19T02:55:29;997.31;;;23.42;58.68
48810;BME280;40070;47.322;18.784;2023-09-19T02:57:32;997.37;;;23.29;58.97
48810;BME280;40070;47.322;18.784;2023-09-19T02:59:34;997.43;;;23.29;58.93
48810;BME280;40070;47.322;18.784;2023-09-19T03:01:37;997.40;;;23.18;59.20
48810;BME280;40070;47.322;18.784;2023-09-19T03:03:39;997.36;;;23.20;59.18
48810;BME280;40070;47.322;18.784;2023-09-19T03:05:42;997.31;;;23.04;59.69
48810;BME280;40070;47.322;18.784;2023-09-19T03:07:44;997.29;;;23.08;59.63
48810;BME280;40070;47.322;18.784;2023-09-19T03:09:47;997.27;;;23.09;59.54
48810;BME280;40070;47.322;18.784;2023-09-19T03:11:49;997.29;;;23.09;59.61
48810;BME280;40070;47.322;18.784;2023-09-19T03:13:52;997.21;;;23.18;59.32
48810;BME280;40070;47.322;18.784;2023-09-19T03:15:55;997.28;;;23.03;59.79
48810;BME280;40070;47.322;18.784;2023-09-19T03:17:57;997.33;;;23.14;59.50
48810;BME280;40070;47.322;18.784;2023-09-19T03:20:00;997.29;;;23.21;59.30
48810;BME280;40070;47.322;18.784;2023-09-19T03:22:03;997.30;;;23.31;59.04
48810;BME280;40070;47.322;18.784;2023-09-19T03:24:05;997.32;;;23.33;58.98
48810;BME280;40070;47.322;18.784;2023-09-19T03:26:08;997.35;;;23.08;59.70
48810;BME280;40070;47.322;18.784;2023-09-19T03:28:10;997.33;;;23.15;59.52
48810;BME280;40070;47.322;18.784;2023-09-19T03:30:13;997.34;;;22.93;60.14
48810;BME280;40070;47.322;18.784;2023-09-19T03:32:15;997.37;;;23.11;59.74
48810;BME280;40070;47.322;18.784;2023-09-19T03:34:18;997.40;;;23.05;59.82
48810;BME280;40070;47.322;18.784;2023-09-19T03:36:20;997.43;;;22.90;60.59
48810;BME280;40070;47.322;18.784;2023-09-19T03:38:23;997.39;;;23.06;59.98
48810;BME280;40070;47.322;18.784;2023-09-19T03:40:26;997.41;;;23.02;60.04
48810;BME280;40070;47.322;18.784;2023-09-19T03:42:28;997.39;;;23.17;59.65
48810;BME280;40070;47.322;18.784;2023-09-19T03:44:30;997.38;;;23.29;59.36
48810;BME280;40070;47.322;18.784;2023-09-19T03:46:33;997.37;;;23.22;59.51
48810;BME280;40070;47.322;18.784;2023-09-19T03:48:35;997.43;;;23.08;59.87
48810;BME280;40070;47.322;18.784;2023-09-19T03:50:38;997.45;;;22.99;60.37
48810;BME280;40070;47.322;18.784;2023-09-19T03:52:41;997.44;;;23.07;60.26
48810;BME280;40070;47.322;18.784;2023-09-19T03:54:43;997.46;;;23.13;60.04
48810;BME280;40070;47.322;18.784;2023-09-19T03:56:46;997.46;;;23.20;59.63
48810;BME280;40070;47.322;18.784;2023-09-19T03:58:48;997.42;;;23.08;59.76
48810;BME280;40070;47.322;18.784;2023-09-19T04:00:54;997.39;;;23.19;59.40
48810;BME280;40070;47.322;18.784;2023-09-19T04:02:57;997.50;;;23.01;60.08
48810;BME280;40070;47.322;18.784;2023-09-19T04:04:59;997.56;;;23.16;59.67
48810;BME280;40070;47.322;18.784;2023-09-19T04:07:02;997.52;;;22.91;60.67
48810;BME280;40070;47.322;18.784;2023-09-19T04:09:04;997.53;;;22.64;61.51
48810;BME280;40070;47.322;18.784;2023-09-19T04:11:07;997.64;;;22.59;61.68
48810;BME280;40070;47.322;18.784;2023-09-19T04:13:09;997.65;;;22.89;60.96
48810;BME280;40070;47.322;18.784;2023-09-19T04:15:12;997.70;;;22.77;61.20
48810;BME280;40070;47.322;18.784;2023-09-19T04:17:14;997.72;;;22.86;61.20
48810;BME280;40070;47.322;18.784;2023-09-19T04:19:17;997.78;;;22.49;63.32
48810;BME280;40070;47.322;18.784;2023-09-19T04:21:19;997.74;;;22.38;64.22
48810;BME280;40070;47.322;18.784;2023-09-19T04:23:22;997.79;;;22.37;64.64
48810;BME280;40070;47.322;18.784;2023-09-19T04:25:24;997.79;;;22.42;64.02
48810;BME280;40070;47.322;18.784;2023-09-19T04:27:27;997.87;;;22.49;63.75
48810;BME280;40070;47.322;18.784;2023-09-19T04:29:29;997.84;;;22.46;63.43
48810;BME280;40070;47.322;18.784;2023-09-19T04:31:32;997.87;;;22.47;62.90
48810;BME280;40070;47.322;18.784;2023-09-19T04:33:35;997.91;;;22.59;62.36
48810;BME280;40070;47.322;18.784;2023-09-19T04:35:37;997.93;;;22.59;61.92
48810;BME280;40070;47.322;18.784;2023-09-19T04:37:40;997.97;;;22.59;61.83
48810;BME280;40070;47.322;18.784;2023-09-19T04:39:42;997.98;;;22.69;61.31
48810;BME280;40070;47.322;18.784;2023-09-19T04:41:45;997.96;;;22.53;61.54
48810;BME280;40070;47.322;18.784;2023-09-19T04:43:47;998.02;;;22.68;61.00
48810;BME280;40070;47.322;18.784;2023-09-19T04:45:50;998.03;;;22.45;61.93
48810;BME280;40070;47.322;18.784;2023-09-19T04:47:52;998.11;;;22.13;63.42
48810;BME280;40070;47.322;18.784;2023-09-19T04:49:55;998.17;;;22.07;63.95
48810;BME280;40070;47.322;18.784;2023-09-19T04:51:57;998.24;;;21.93;64.76
48810;BME280;40070;47.322;18.784;2023-09-19T04:54:00;998.25;;;21.79;65.42
48810;BME280;40070;47.322;18.784;2023-09-19T04:56:03;998.30;;;21.69;65.70
48810;BME280;40070;47.322;18.784;2023-09-19T04:58:05;998.34;;;21.75;64.90
48810;BME280;40070;47.322;18.784;2023-09-19T05:00:08;998.41;;;21.70;64.07
48810;BME280;40070;47.322;18.784;2023-09-19T05:02:10;998.49;;;21.59;64.06
48810;BME280;40070;47.322;18.784;2023-09-19T05:04:13;998.47;;;21.35;64.23
48810;BME280;40070;47.322;18.784;2023-09-19T05:06:15;998.54;;;21.18;64.34
48810;BME280;40070;47.322;18.784;2023-09-19T05:08:18;998.58;;;21.31;63.98
48810;BME280;40070;47.322;18.784;2023-09-19T05:10:20;998.58;;;21.59;63.10
48810;BME280;40070;47.322;18.784;2023-09-19T05:12:23;998.56;;;21.52;62.92
48810;BME280;40070;47.322;18.784;2023-09-19T05:14:25;998.56;;;21.50;62.74
48810;BME280;40070;47.322;18.784;2023-09-19T05:16:28;998.44;;;21.56;62.31
48810;BME280;40070;47.322;18.784;2023-09-19T05:18:30;998.42;;;21.35;62.52
48810;BME280;40070;47.322;18.784;2023-09-19T05:20:33;998.48;;;21.40;62.15
48810;BME280;40070;47.322;18.784;2023-09-19T05:22:36;998.53;;;21.43;62.27
48810;BME280;40070;47.322;18.784;2023-09-19T05:24:40;998.54;;;21.19;62.93
48810;BME280;40070;47.322;18.784;2023-09-19T05:26:43;998.48;;;21.37;62.58
48810;BME280;40070;47.322;18.784;2023-09-19T05:28:45;998.56;;;21.44;62.55
48810;BME280;40070;47.322;18.784;2023-09-19T05:30:47;998.61;;;21.33;62.91
48810;BME280;40070;47.322;18.784;2023-09-19T05:32:50;998.62;;;21.23;63.13
48810;BME280;40070;47.322;18.784;2023-09-19T05:34:52;998.59;;;21.35;62.92
48810;BME280;40070;47.322;18.784;2023-09-19T05:36:55;998.64;;;21.10;63.65
48810;BME280;40070;47.322;18.784;2023-09-19T05:38:57;998.69;;;20.98;64.04
48810;BME280;40070;47.322;18.784;2023-09-19T05:41:00;998.75;;;21.13;63.60
48810;BME280;40070;47.322;18.784;2023-09-19T05:43:03;998.80;;;21.19;63.45
48810;BME280;40070;47.322;18.784;2023-09-19T05:45:06;998.78;;;21.03;63.86
48810;BME280;40070;47.322;18.784;2023-09-19T05:47:08;998.84;;;20.84;64.28
48810;BME280;40070;47.322;18.784;2023-09-19T05:49:11;998.84;;;20.66;65.14
48810;BME280;40070;47.322;18.784;2023-09-19T05:51:13;998.85;;;20.65;64.84
48810;BME280;40070;47.322;18.784;2023-09-19T05:53:16;998.83;;;20.68;65.03
48810;BME280;40070;47.322;18.784;2023-09-19T05:55:18;998.87;;;20.49;65.55
48810;BME280;40070;47.322;18.784;2023-09-19T05:57:21;998.90;;;20.67;65.09
48810;BME280;40070;47.322;18.784;2023-09-19T05:59:23;998.91;;;20.50;65.53
48810;BME280;40070;47.322;18.784;2023-09-19T06:01:26;998.90;;;20.51;65.52
48810;BME280;40070;47.322;18.784;2023-09-19T06:03:28;998.97;;;20.66;65.10
48810;BME280;40070;47.322;18.784;2023-09-19T06:05:31;998.96;;;20.55;65.30
48810;BME280;40070;47.322;18.784;2023-09-19T06:07:33;998.97;;;20.52;65.60
48810;BME280;40070;47.322;18.784;2023-09-19T06:09:36;999.00;;;20.56;65.46
48810;BME280;40070;47.322;18.784;2023-09-19T06:11:38;999.09;;;20.43;65.78
48810;BME280;40070;47.322;18.784;2023-09-19T06:13:41;999.10;;;20.30;66.20
48810;BME280;40070;47.322;18.784;2023-09-19T06:15:43;999.05;;;20.24;66.49
48810;BME280;40070;47.322;18.784;2023-09-19T06:17:53;999.14;;;20.11;67.12
48810;BME280;40070;47.322;18.784;2023-09-19T06:19:55;999.12;;;20.29;66.83
48810;BME280;40070;47.322;18.784;2023-09-19T06:21:58;999.23;;;20.34;66.69
48810;BME280;40070;47.322;18.784;2023-09-19T06:24:01;999.22;;;20.35;67.04
48810;BME280;40070;47.322;18.784;2023-09-19T06:26:03;999.30;;;20.30;67.10
48810;BME280;40070;47.322;18.784;2023-09-19T06:28:06;999.36;;;20.19;67.76
48810;BME280;40070;47.322;18.784;2023-09-19T06:30:09;999.42;;;20.27;67.61
48810;BME280;40070;47.322;18.784;2023-09-19T06:32:11;999.50;;;20.12;68.59
48810;BME280;40070;47.322;18.784;2023-09-19T06:34:14;999.59;;;20.31;69.01
48810;BME280;40070;47.322;18.784;2023-09-19T06:36:16;999.63;;;20.33;70.13
48810;BME280;40070;47.322;18.784;2023-09-19T06:38:19;999.61;;;20.15;71.89
48810;BME280;40070;47.322;18.784;2023-09-19T06:40:21;999.61;;;20.10;73.08
48810;BME280;40070;47.322;18.784;2023-09-19T06:42:24;999.62;;;20.22;73.82
48810;BME280;40070;47.322;18.784;2023-09-19T06:44:27;999.62;;;20.03;74.60
48810;BME280;40070;47.322;18.784;2023-09-19T06:46:29;999.60;;;19.81;74.89
48810;BME280;40070;47.322;18.784;2023-09-19T06:48:32;999.60;;;19.70;76.01
48810;BME280;40070;47.322;18.784;2023-09-19T06:50:34;999.64;;;19.72;76.64
48810;BME280;40070;47.322;18.784;2023-09-19T06:52:36;999.62;;;19.66;76.53
48810;BME280;40070;47.322;18.784;2023-09-19T06:54:39;999.66;;;19.60;77.43
48810;BME280;40070;47.322;18.784;2023-09-19T06:56:42;999.68;;;19.52;78.26
48810;BME280;40070;47.322;18.784;2023-09-19T06:58:44;999.74;;;19.37;78.45
48810;BME280;40070;47.322;18.784;2023-09-19T07:00:47;999.78;;;19.46;79.18
48810;BME280;40070;47.322;18.784;2023-09-19T07:02:59;999.83;;;19.46;78.96
48810;BME280;40070;47.322;18.784;2023-09-19T07:05:01;999.85;;;19.43;79.35
48810;BME280;40070;47.322;18.784;2023-09-19T07:07:04;999.91;;;19.19;80.71
48810;BME280;40070;47.322;18.784;2023-09-19T07:09:06;999.99;;;19.36;80.05
48810;BME280;40070;47.322;18.784;2023-09-19T07:11:09;1000.01;;;19.66;78.93
48810;BME280;40070;47.322;18.784;2023-09-19T07:13:11;1000.03;;;19.64;79.55
48810;BME280;40070;47.322;18.784;2023-09-19T07:15:14;1000.03;;;19.63;79.05
48810;BME280;40070;47.322;18.784;2023-09-19T07:17:17;1000.04;;;19.75;78.61
48810;BME280;40070;47.322;18.784;2023-09-19T07:19:19;1000.02;;;19.91;78.47
48810;BME280;40070;47.322;18.784;2023-09-19T07:21:22;1000.08;;;19.64;79.20
48810;BME280;40070;47.322;18.784;2023-09-19T07:23:24;1000.07;;;19.85;78.96
48810;BME280;40070;47.322;18.784;2023-09-19T07:25:27;1000.07;;;20.02;78.80
48810;BME280;40070;47.322;18.784;2023-09-19T07:27:30;1000.13;;;19.92;79.22
48810;BME280;40070;47.322;18.784;2023-09-19T07:29:32;1000.15;;;20.10;78.28
48810;BME280;40070;47.322;18.784;2023-09-19T07:31:35;1000.19;;;20.26;77.32
48810;BME280;40070;47.322;18.784;2023-09-19T07:33:37;1000.21;;;20.37;77.35
48810;BME280;40070;47.322;18.784;2023-09-19T07:35:40;1000.21;;;20.55;76.62
48810;BME280;40070;47.322;18.784;2023-09-19T07:37:42;1000.22;;;20.52;76.86
48810;BME280;40070;47.322;18.784;2023-09-19T07:39:45;1000.19;;;20.45;76.98
48810;BME280;40070;47.322;18.784;2023-09-19T07:41:47;1000.18;;;20.36;76.96
48810;BME280;40070;47.322;18.784;2023-09-19T07:43:50;1000.23;;;20.52;76.62
48810;BME280;40070;47.322;18.784;2023-09-19T07:45:52;1000.29;;;20.62;76.30
48810;BME280;40070;47.322;18.784;2023-09-19T07:47:56;1000.28;;;20.76;76.06
48810;BME280;40070;47.322;18.784;2023-09-19T07:49:59;1000.39;;;20.50;76.88
48810;BME280;40070;47.322;18.784;2023-09-19T07:52:02;1000.41;;;20.53;76.26
48810;BME280;40070;47.322;18.784;2023-09-19T07:54:04;1000.41;;;20.30;76.56
48810;BME280;40070;47.322;18.784;2023-09-19T07:56:07;1000.39;;;20.47;76.26
48810;BME280;40070;47.322;18.784;2023-09-19T07:58:10;1000.39;;;20.38;76.71
48810;BME280;40070;47.322;18.784;2023-09-19T08:00:13;1000.43;;;20.29;78.18
48810;BME280;40070;47.322;18.784;2023-09-19T08:02:15;1000.39;;;20.20;77.38
48810;BME280;40070;47.322;18.784;2023-09-19T08:04:18;1000.39;;;20.38;77.12
48810;BME280;40070;47.322;18.784;2023-09-19T08:06:20;1000.43;;;20.08;77.71
48810;BME280;40070;47.322;18.784;2023-09-19T08:08:23;1000.44;;;20.13;78.19
48810;BME280;40070;47.322;18.784;2023-09-19T08:10:25;1000.44;;;20.20;78.54
48810;BME280;40070;47.322;18.784;2023-09-19T08:12:28;1000.53;;;20.40;77.74
48810;BME280;40070;47.322;18.784;2023-09-19T08:14:31;1000.58;;;20.49;77.28
48810;BME280;40070;47.322;18.784;2023-09-19T08:16:34;1000.63;;;20.51;77.11
48810;BME280;40070;47.322;18.784;2023-09-19T08:18:37;1000.66;;;20.50;76.95
48810;BME280;40070;47.322;18.784;2023-09-19T08:20:39;1000.64;;;20.52;76.87
48810;BME280;40070;47.322;18.784;2023-09-19T08:22:51;1000.70;;;20.34;77.71
48810;BME280;40070;47.322;18.784;2023-09-19T08:24:54;1000.72;;;20.48;76.87
48810;BME280;40070;47.322;18.784;2023-09-19T08:26:57;1000.86;;;20.32;76.98
48810;BME280;40070;47.322;18.784;2023-09-19T08:28:59;1000.92;;;20.35;77.15
48810;BME280;40070;47.322;18.784;2023-09-19T08:31:03;1000.99;;;20.42;77.41
48810;BME280;40070;47.322;18.784;2023-09-19T08:33:05;1000.99;;;20.52;77.45
48810;BME280;40070;47.322;18.784;2023-09-19T08:35:08;1001.06;;;20.71;77.29
48810;BME280;40070;47.322;18.784;2023-09-19T08:37:11;1001.14;;;20.71;77.18
48810;BME280;40070;47.322;18.784;2023-09-19T08:39:13;1001.15;;;20.64;77.33
48810;BME280;40070;47.322;18.784;2023-09-19T08:41:16;1001.17;;;20.76;77.48
48810;BME280;40070;47.322;18.784;2023-09-19T08:43:21;1001.17;;;20.76;77.21
48810;BME280;40070;47.322;18.784;2023-09-19T08:45:24;1001.17;;;20.96;76.24
48810;BME280;40070;47.322;18.784;2023-09-19T08:47:33;1001.13;;;20.87;77.32
48810;BME280;40070;47.322;18.784;2023-09-19T08:52:16;1000.85;;;21.08;76.51
48810;BME280;40070;47.322;18.784;2023-09-19T08:54:24;1000.86;;;20.84;76.60
48810;BME280;40070;47.322;18.784;2023-09-19T08:56:27;1000.84;;;20.77;76.93
48810;BME280;40070;47.322;18.784;2023-09-19T08:58:31;1000.72;;;20.92;76.80
48810;BME280;40070;47.322;18.784;2023-09-19T09:00:36;1000.58;;;20.76;77.30
48810;BME280;40070;47.322;18.784;2023-09-19T09:02:39;1000.50;;;20.83;76.82
48810;BME280;40070;47.322;18.784;2023-09-19T09:04:43;1000.58;;;21.02;76.89
48810;BME280;40070;47.322;18.784;2023-09-19T09:06:45;1000.57;;;20.88;77.83
48810;BME280;40070;47.322;18.784;2023-09-19T09:08:48;1000.52;;;20.89;77.76
48810;BME280;40070;47.322;18.784;2023-09-19T09:10:50;1000.52;;;21.15;76.99
48810;BME280;40070;47.322;18.784;2023-09-19T09:12:53;1000.42;;;21.44;75.48
48810;BME280;40070;47.322;18.784;2023-09-19T09:14:55;1000.40;;;21.45;75.27
48810;BME280;40070;47.322;18.784;2023-09-19T09:16:58;1000.27;;;21.60;74.96
48810;BME280;40070;47.322;18.784;2023-09-19T09:19:00;1000.25;;;21.58;75.31
48810;BME280;40070;47.322;18.784;2023-09-19T09:21:03;1000.40;;;21.52;75.24
48810;BME280;40070;47.322;18.784;2023-09-19T09:23:06;1000.49;;;21.30;75.48
48810;BME280;40070;47.322;18.784;2023-09-19T09:25:08;1000.69;;;21.29;75.25
48810;BME280;40070;47.322;18.784;2023-09-19T09:27:11;1000.77;;;21.32;75.84
48810;BME280;40070;47.322;18.784;2023-09-19T09:29:15;1000.91;;;21.20;76.88
48810;BME280;40070;47.322;18.784;2023-09-19T09:31:24;1000.95;;;21.31;76.90
48810;BME280;40070;47.322;18.784;2023-09-19T09:33:27;1000.93;;;21.53;76.78
48810;BME280;40070;47.322;18.784;2023-09-19T09:35:29;1000.98;;;21.71;75.98
48810;BME280;40070;47.322;18.784;2023-09-19T09:37:35;1001.01;;;21.77;75.68
48810;BME280;40070;47.322;18.784;2023-09-19T09:39:38;1000.98;;;21.64;76.45
48810;BME280;40070;47.322;18.784;2023-09-19T09:41:40;1000.95;;;21.70;75.28
48810;BME280;40070;47.322;18.784;2023-09-19T09:43:43;1000.97;;;21.85;75.05
48810;BME280;40070;47.322;18.784;2023-09-19T09:45:45;1000.94;;;21.79;75.22
48810;BME280;40070;47.322;18.784;2023-09-19T09:47:48;1000.88;;;21.99;74.90
48810;BME280;40070;47.322;18.784;2023-09-19T09:49:50;1000.86;;;21.87;75.83
48810;BME280;40070;47.322;18.784;2023-09-19T09:52:03;1000.90;;;22.00;75.70
48810;BME280;40070;47.322;18.784;2023-09-19T09:54:12;1000.89;;;22.26;74.98
48810;BME280;40070;47.322;18.784;2023-09-19T09:56:14;1000.88;;;22.34;74.35
48810;BME280;40070;47.322;18.784;2023-09-19T09:58:20;1000.79;;;22.69;74.01
48810;BME280;40070;47.322;18.784;2023-09-19T10:00:22;1000.85;;;22.70;72.98
48810;BME280;40070;47.322;18.784;2023-09-19T10:02:26;1000.78;;;22.76;71.54
48810;BME280;40070;47.322;18.784;2023-09-19T10:04:29;1000.78;;;22.76;71.78
48810;BME280;40070;47.322;18.784;2023-09-19T10:06:40;1000.81;;;22.92;71.05
48810;BME280;40070;47.322;18.784;2023-09-19T10:08:57;1000.92;;;23.03;71.40
48810;BME280;40070;47.322;18.784;2023-09-19T10:10:57;1000.93;;;22.93;71.97
48810;BME280;40070;47.322;18.784;2023-09-19T10:13:00;1000.94;;;22.80;71.86
48810;BME280;40070;47.322;18.784;2023-09-19T10:15:02;1001.03;;;22.91;70.61
48810;BME280;40070;47.322;18.784;2023-09-19T10:17:05;1001.03;;;22.89;70.42
48810;BME280;40070;47.322;18.784;2023-09-19T10:19:08;1000.97;;;22.72;70.21
48810;BME280;40070;47.322;18.784;2023-09-19T10:21:12;1001.05;;;22.54;70.78
48810;BME280;40070;47.322;18.784;2023-09-19T10:23:16;1001.04;;;22.26;71.91
48810;BME280;40070;47.322;18.784;2023-09-19T10:25:19;1001.05;;;22.52;70.75
48810;BME280;40070;47.322;18.784;2023-09-19T10:27:21;1001.06;;;22.39;71.31
48810;BME280;40070;47.322;18.784;2023-09-19T10:29:27;1001.10;;;22.34;70.98
48810;BME280;40070;47.322;18.784;2023-09-19T10:31:31;1001.07;;;22.38;70.94
48810;BME280;40070;47.322;18.784;2023-09-19T10:33:34;1001.06;;;22.54;70.55
48810;BME280;40070;47.322;18.784;2023-09-19T10:35:38;1001.06;;;22.64;71.19
48810;BME280;40070;47.322;18.784;2023-09-19T10:37:41;1001.16;;;22.51;71.67
48810;BME280;40070;47.322;18.784;2023-09-19T10:39:45;1001.15;;;22.57;71.08
48810;BME280;40070;47.322;18.784;2023-09-19T10:41:51;1001.09;;;22.76;70.76
48810;BME280;40070;47.322;18.784;2023-09-19T10:43:55;1001.09;;;22.85;71.38
48810;BME280;40070;47.322;18.784;2023-09-19T10:46:02;1001.14;;;22.99;70.84
48810;BME280;40070;47.322;18.784;2023-09-19T10:48:05;1001.24;;;23.30;69.20
48810;BME280;40070;47.322;18.784;2023-09-19T10:50:08;1001.26;;;23.84;68.59
48810;BME280;40070;47.322;18.784;2023-09-19T10:52:10;1001.31;;;24.00;65.15
48810;BME280;40070;47.322;18.784;2023-09-19T10:54:13;1001.35;;;24.14;64.04
48810;BME280;40070;47.322;18.784;2023-09-19T10:56:24;1001.27;;;24.65;64.78
48810;BME280;40070;47.322;18.784;2023-09-19T10:58:31;1001.17;;;24.87;62.89
48810;BME280;40070;47.322;18.784;2023-09-19T11:00:49;1001.12;;;25.09;61.69
48810;BME280;40070;47.322;18.784;2023-09-19T11:03:33;1001.03;;;25.24;59.38
48810;BME280;40070;47.322;18.784;2023-09-19T11:05:12;1001.03;;;24.97;58.87
48810;BME280;40070;47.322;18.784;2023-09-19T11:07:15;1000.95;;;25.03;57.18
48810;BME280;40070;47.322;18.784;2023-09-19T11:09:17;1000.98;;;24.91;58.22
48810;BME280;40070;47.322;18.784;2023-09-19T11:11:39;1001.02;;;25.13;57.72
48810;BME280;40070;47.322;18.784;2023-09-19T11:13:41;1001.04;;;24.82;56.41